sensor_id;sensor_type;location;lat;lon;timestamp;pressure;altitude;pressure_sealevel;temperature;humidity
70971;BME280;58632;51.718;19.446;2022-07-29T00:00:52;100020.03;;;15.85;55.42
70971;BME280;58632;51.718;19.446;2022-07-29T00:03:19;100012.30;;;15.85;55.62
70971;BME280;58632;51.718;19.446;2022-07-29T00:05:47;100012.09;;;15.84;55.77
70971;BME280;58632;51.718;19.446;2022-07-29T00:08:14;100017.82;;;15.85;56.01
70971;BME280;58632;51.718;19.446;2022-07-29T00:10:43;100009.33;;;15.84;56.18
70971;BME280;58632;51.718;19.446;2022-07-29T00:13:10;100017.16;;;15.82;56.22
70971;BME280;58632;51.718;19.446;2022-07-29T00:15:38;100024.55;;;15.65;56.69
70971;BME280;58632;51.718;19.446;2022-07-29T00:18:06;100029.44;;;15.50;56.92
70971;BME280;58632;51.718;19.446;2022-07-29T00:20:34;100023.70;;;15.37;57.43
70971;BME280;58632;51.718;19.446;2022-07-29T00:23:01;100032.23;;;15.32;57.24
70971;BME280;58632;51.718;19.446;2022-07-29T00:25:29;100034.77;;;15.31;57.34
70971;BME280;58632;51.718;19.446;2022-07-29T00:27:56;100035.69;;;15.29;57.92
70971;BME280;58632;51.718;19.446;2022-07-29T00:30:23;100040.29;;;15.31;57.81
70971;BME280;58632;51.718;19.446;2022-07-29T00:32:51;100037.63;;;15.40;57.37
70971;BME280;58632;51.718;19.446;2022-07-29T00:35:18;100035.62;;;15.47;57.45
70971;BME280;58632;51.718;19.446;2022-07-29T00:38:03;100026.43;;;15.49;57.19
70971;BME280;58632;51.718;19.446;2022-07-29T00:40:31;100033.20;;;15.52;57.35
70971;BME280;58632;51.718;19.446;2022-07-29T00:42:58;100036.87;;;15.56;56.99
70971;BME280;58632;51.718;19.446;2022-07-29T00:45:25;100037.46;;;15.61;56.75
70971;BME280;58632;51.718;19.446;2022-07-29T00:47:53;100030.77;;;15.62;56.91
70971;BME280;58632;51.718;19.446;2022-07-29T00:50:20;100027.47;;;15.51;57.31
70971;BME280;58632;51.718;19.446;2022-07-29T00:52:47;100029.69;;;15.39;57.94
70971;BME280;58632;51.718;19.446;2022-07-29T00:55:15;100027.30;;;15.25;58.67
70971;BME280;58632;51.718;19.446;2022-07-29T00:57:44;100034.80;;;15.12;59.26
70971;BME280;58632;51.718;19.446;2022-07-29T01:00:18;100023.05;;;15.09;58.81
70971;BME280;58632;51.718;19.446;2022-07-29T01:02:50;100025.27;;;15.10;58.75
70971;BME280;58632;51.718;19.446;2022-07-29T01:05:19;100025.59;;;15.08;58.67
70971;BME280;58632;51.718;19.446;2022-07-29T01:07:51;100024.00;;;15.07;58.53
70971;BME280;58632;51.718;19.446;2022-07-29T01:10:21;100028.02;;;15.03;58.47
70971;BME280;58632;51.718;19.446;2022-07-29T01:12:51;100023.53;;;14.99;58.44
70971;BME280;58632;51.718;19.446;2022-07-29T01:15:22;100021.02;;;14.94;58.50
70971;BME280;58632;51.718;19.446;2022-07-29T01:18:07;100023.31;;;14.92;58.56
70971;BME280;58632;51.718;19.446;2022-07-29T01:29:57;100018.73;;;14.84;58.83
70971;BME280;58632;51.718;19.446;2022-07-29T01:32:28;100024.45;;;14.78;58.80
70971;BME280;58632;51.718;19.446;2022-07-29T01:35:08;100019.30;;;14.77;59.04
70971;BME280;58632;51.718;19.446;2022-07-29T01:37:52;100020.22;;;14.75;59.11
70971;BME280;58632;51.718;19.446;2022-07-29T01:40:31;100020.55;;;14.73;59.22
70971;BME280;58632;51.718;19.446;2022-07-29T01:43:13;100014.57;;;14.71;59.26
70971;BME280;58632;51.718;19.446;2022-07-29T01:48:23;100010.09;;;14.54;59.77
70971;BME280;58632;51.718;19.446;2022-07-29T01:53:56;100013.03;;;14.37;60.13
70971;BME280;58632;51.718;19.446;2022-07-29T01:56:26;100006.70;;;14.30;60.29
70971;BME280;58632;51.718;19.446;2022-07-29T01:58:58;100010.14;;;14.27;60.29
70971;BME280;58632;51.718;19.446;2022-07-29T02:01:29;100006.02;;;14.27;60.37
70971;BME280;58632;51.718;19.446;2022-07-29T02:04:01;100019.42;;;14.29;60.41
70971;BME280;58632;51.718;19.446;2022-07-29T02:06:32;100013.00;;;14.31;60.29
70971;BME280;58632;51.718;19.446;2022-07-29T02:09:02;100010.72;;;14.33;60.56
70971;BME280;58632;51.718;19.446;2022-07-29T02:11:32;100005.11;;;14.42;60.52
70971;BME280;58632;51.718;19.446;2022-07-29T02:14:01;100009.02;;;14.47;60.35
70971;BME280;58632;51.718;19.446;2022-07-29T02:16:32;100004.19;;;14.50;60.15
70971;BME280;58632;51.718;19.446;2022-07-29T02:19:03;99998.33;;;14.45;60.27
70971;BME280;58632;51.718;19.446;2022-07-29T02:21:33;100006.36;;;14.38;60.07
70971;BME280;58632;51.718;19.446;2022-07-29T02:24:04;100005.67;;;14.35;60.50
70971;BME280;58632;51.718;19.446;2022-07-29T02:26:33;99998.89;;;14.38;60.46
70971;BME280;58632;51.718;19.446;2022-07-29T02:29:02;99992.48;;;14.34;60.68
70971;BME280;58632;51.718;19.446;2022-07-29T02:31:32;99992.23;;;14.33;60.63
70971;BME280;58632;51.718;19.446;2022-07-29T02:34:03;99997.05;;;14.30;60.48
70971;BME280;58632;51.718;19.446;2022-07-29T02:36:34;99985.11;;;14.26;60.70
70971;BME280;58632;51.718;19.446;2022-07-29T02:39:03;99987.29;;;14.21;60.83
70971;BME280;58632;51.718;19.446;2022-07-29T02:41:52;99990.84;;;14.15;61.03
70971;BME280;58632;51.718;19.446;2022-07-29T02:44:26;99991.03;;;14.10;61.09
70971;BME280;58632;51.718;19.446;2022-07-29T02:47:24;99992.20;;;14.09;60.91
70971;BME280;58632;51.718;19.446;2022-07-29T02:50:15;99987.27;;;14.08;60.95
70971;BME280;58632;51.718;19.446;2022-07-29T02:55:22;99987.02;;;14.01;61.22
70971;BME280;58632;51.718;19.446;2022-07-29T03:00:52;99994.60;;;13.77;61.98
70971;BME280;58632;51.718;19.446;2022-07-29T03:03:23;99993.69;;;13.73;62.12
70971;BME280;58632;51.718;19.446;2022-07-29T03:05:55;100002.95;;;13.68;62.36
70971;BME280;58632;51.718;19.446;2022-07-29T03:08:24;99998.03;;;13.68;62.51
70971;BME280;58632;51.718;19.446;2022-07-29T03:10:55;99995.98;;;13.77;62.40
70971;BME280;58632;51.718;19.446;2022-07-29T03:13:23;99989.60;;;13.85;62.32
70971;BME280;58632;51.718;19.446;2022-07-29T03:15:52;99987.32;;;13.93;62.05
70971;BME280;58632;51.718;19.446;2022-07-29T03:18:21;99988.26;;;13.97;62.03
70971;BME280;58632;51.718;19.446;2022-07-29T03:20:49;99996.52;;;13.97;62.25
70971;BME280;58632;51.718;19.446;2022-07-29T03:23:20;99991.34;;;13.96;62.19
70971;BME280;58632;51.718;19.446;2022-07-29T03:25:50;99990.91;;;14.00;62.20
70971;BME280;58632;51.718;19.446;2022-07-29T03:28:18;99993.08;;;13.94;62.38
70971;BME280;58632;51.718;19.446;2022-07-29T03:30:46;99984.34;;;13.92;62.65
70971;BME280;58632;51.718;19.446;2022-07-29T03:33:13;99993.80;;;14.04;62.60
70971;BME280;58632;51.718;19.446;2022-07-29T03:35:41;99983.48;;;14.19;62.27
70971;BME280;58632;51.718;19.446;2022-07-29T03:38:08;99986.84;;;14.31;61.89
70971;BME280;58632;51.718;19.446;2022-07-29T03:40:51;99991.22;;;14.32;61.78
70971;BME280;58632;51.718;19.446;2022-07-29T03:43:21;99992.48;;;14.34;61.89
70971;BME280;58632;51.718;19.446;2022-07-29T03:45:52;100000.75;;;14.34;62.26
70971;BME280;58632;51.718;19.446;2022-07-29T03:48:23;100001.19;;;14.30;62.26
70971;BME280;58632;51.718;19.446;2022-07-29T03:50:51;100003.03;;;14.32;62.20
70971;BME280;58632;51.718;19.446;2022-07-29T03:53:19;99997.97;;;14.28;62.42
70971;BME280;58632;51.718;19.446;2022-07-29T03:55:50;99990.74;;;14.36;62.32
70971;BME280;58632;51.718;19.446;2022-07-29T03:58:20;99998.27;;;14.54;62.07
70971;BME280;58632;51.718;19.446;2022-07-29T04:00:48;99999.88;;;14.73;61.74
70971;BME280;58632;51.718;19.446;2022-07-29T04:03:16;100003.42;;;14.92;61.51
70971;BME280;58632;51.718;19.446;2022-07-29T04:05:44;100006.31;;;14.96;61.06
70971;BME280;58632;51.718;19.446;2022-07-29T04:08:11;100004.11;;;15.01;61.17
70971;BME280;58632;51.718;19.446;2022-07-29T04:10:38;100004.58;;;15.10;60.91
70971;BME280;58632;51.718;19.446;2022-07-29T04:13:06;100012.34;;;15.32;60.72
70971;BME280;58632;51.718;19.446;2022-07-29T04:15:33;100015.38;;;15.61;60.12
70971;BME280;58632;51.718;19.446;2022-07-29T04:18:00;100021.55;;;15.77;59.59
70971;BME280;58632;51.718;19.446;2022-07-29T04:20:27;100019.19;;;15.91;59.32
70971;BME280;58632;51.718;19.446;2022-07-29T04:22:55;100014.83;;;16.12;58.73
70971;BME280;58632;51.718;19.446;2022-07-29T04:25:22;100009.89;;;16.27;58.30
70971;BME280;58632;51.718;19.446;2022-07-29T04:27:49;100015.27;;;16.52;57.57
70971;BME280;58632;51.718;19.446;2022-07-29T04:30:29;100011.34;;;18.24;55.06
70971;BME280;58632;51.718;19.446;2022-07-29T04:32:58;100011.58;;;20.01;52.69
70971;BME280;58632;51.718;19.446;2022-07-29T04:35:28;100006.90;;;21.33;50.01
70971;BME280;58632;51.718;19.446;2022-07-29T04:37:56;100003.94;;;22.66;48.10
70971;BME280;58632;51.718;19.446;2022-07-29T04:40:23;100009.33;;;23.77;45.08
70971;BME280;58632;51.718;19.446;2022-07-29T04:42:50;100005.98;;;24.67;42.66
70971;BME280;58632;51.718;19.446;2022-07-29T04:45:18;100006.37;;;25.48;41.20
70971;BME280;58632;51.718;19.446;2022-07-29T04:47:45;100002.25;;;26.33;39.43
70971;BME280;58632;51.718;19.446;2022-07-29T04:50:12;100001.81;;;27.21;35.95
70971;BME280;58632;51.718;19.446;2022-07-29T04:52:39;99999.44;;;27.99;35.55
70971;BME280;58632;51.718;19.446;2022-07-29T04:55:07;99998.73;;;28.56;33.97
70971;BME280;58632;51.718;19.446;2022-07-29T04:57:35;100007.30;;;29.06;33.74
70971;BME280;58632;51.718;19.446;2022-07-29T05:00:04;99995.92;;;29.47;31.77
70971;BME280;58632;51.718;19.446;2022-07-29T05:02:32;100005.27;;;30.07;30.49
70971;BME280;58632;51.718;19.446;2022-07-29T05:04:59;100001.20;;;30.90;30.30
70971;BME280;58632;51.718;19.446;2022-07-29T05:07:26;100004.06;;;31.29;28.46
70971;BME280;58632;51.718;19.446;2022-07-29T05:09:54;100010.87;;;31.36;28.32
70971;BME280;58632;51.718;19.446;2022-07-29T05:12:24;100009.83;;;31.87;26.69
70971;BME280;58632;51.718;19.446;2022-07-29T05:14:51;100008.52;;;32.05;26.61
70971;BME280;58632;51.718;19.446;2022-07-29T05:17:20;100007.70;;;31.74;26.62
70971;BME280;58632;51.718;19.446;2022-07-29T05:19:48;100008.84;;;30.85;28.33
70971;BME280;58632;51.718;19.446;2022-07-29T05:22:20;100002.39;;;30.03;28.62
70971;BME280;58632;51.718;19.446;2022-07-29T05:24:48;100001.67;;;29.86;28.27
70971;BME280;58632;51.718;19.446;2022-07-29T05:27:15;100005.36;;;30.16;27.38
70971;BME280;58632;51.718;19.446;2022-07-29T05:29:42;100012.03;;;30.31;27.57
70971;BME280;58632;51.718;19.446;2022-07-29T05:32:11;100009.54;;;30.76;26.78
70971;BME280;58632;51.718;19.446;2022-07-29T05:34:41;100016.69;;;30.98;27.13
70971;BME280;58632;51.718;19.446;2022-07-29T05:37:09;100011.02;;;31.33;26.98
70971;BME280;58632;51.718;19.446;2022-07-29T05:39:36;100008.04;;;31.36;26.72
70971;BME280;58632;51.718;19.446;2022-07-29T05:42:09;100001.05;;;31.68;26.26
70971;BME280;58632;51.718;19.446;2022-07-29T05:44:38;100002.78;;;31.92;26.47
70971;BME280;58632;51.718;19.446;2022-07-29T05:47:06;100003.20;;;32.12;25.74
70971;BME280;58632;51.718;19.446;2022-07-29T05:49:33;100002.30;;;32.20;25.51
70971;BME280;58632;51.718;19.446;2022-07-29T05:52:01;99998.06;;;32.29;25.55
70971;BME280;58632;51.718;19.446;2022-07-29T05:54:28;100004.13;;;32.49;25.21
70971;BME280;58632;51.718;19.446;2022-07-29T05:56:56;100005.45;;;32.58;25.32
70971;BME280;58632;51.718;19.446;2022-07-29T05:59:23;100002.97;;;32.97;24.98
70971;BME280;58632;51.718;19.446;2022-07-29T06:01:51;100011.81;;;33.36;24.69
70971;BME280;58632;51.718;19.446;2022-07-29T06:04:18;100007.72;;;33.55;23.82
70971;BME280;58632;51.718;19.446;2022-07-29T06:06:45;100013.69;;;33.71;23.64
70971;BME280;58632;51.718;19.446;2022-07-29T06:09:13;100016.58;;;33.57;24.23
70971;BME280;58632;51.718;19.446;2022-07-29T06:11:40;100011.03;;;33.67;24.05
70971;BME280;58632;51.718;19.446;2022-07-29T06:14:08;100010.57;;;33.27;23.76
70971;BME280;58632;51.718;19.446;2022-07-29T06:16:35;100017.02;;;33.00;23.78
70971;BME280;58632;51.718;19.446;2022-07-29T06:19:02;100016.06;;;32.99;24.06
70971;BME280;58632;51.718;19.446;2022-07-29T06:21:29;100010.42;;;33.08;24.08
70971;BME280;58632;51.718;19.446;2022-07-29T06:23:56;100016.41;;;33.10;23.35
70971;BME280;58632;51.718;19.446;2022-07-29T06:26:24;100008.84;;;33.25;23.90
70971;BME280;58632;51.718;19.446;2022-07-29T06:28:51;99998.12;;;33.29;23.39
70971;BME280;58632;51.718;19.446;2022-07-29T06:31:18;100008.52;;;33.14;23.12
70971;BME280;58632;51.718;19.446;2022-07-29T06:33:45;100004.70;;;32.35;24.05
70971;BME280;58632;51.718;19.446;2022-07-29T06:36:12;100007.79;;;31.61;25.13
70971;BME280;58632;51.718;19.446;2022-07-29T06:38:39;100004.53;;;31.10;25.53
70971;BME280;58632;51.718;19.446;2022-07-29T06:41:08;100005.56;;;30.73;26.22
70971;BME280;58632;51.718;19.446;2022-07-29T06:43:39;100005.75;;;30.31;27.07
70971;BME280;58632;51.718;19.446;2022-07-29T06:46:13;100005.03;;;29.89;27.58
70971;BME280;58632;51.718;19.446;2022-07-29T06:48:42;100010.11;;;29.94;28.44
70971;BME280;58632;51.718;19.446;2022-07-29T06:51:09;100009.89;;;29.59;27.82
70971;BME280;58632;51.718;19.446;2022-07-29T06:53:38;100012.36;;;29.57;28.66
70971;BME280;58632;51.718;19.446;2022-07-29T06:56:07;100022.77;;;29.60;27.99
70971;BME280;58632;51.718;19.446;2022-07-29T06:58:39;100012.81;;;29.34;27.96
70971;BME280;58632;51.718;19.446;2022-07-29T07:01:07;100009.34;;;28.98;28.40
70971;BME280;58632;51.718;19.446;2022-07-29T07:03:34;100011.37;;;28.89;28.56
70971;BME280;58632;51.718;19.446;2022-07-29T07:06:01;100008.74;;;28.65;29.05
70971;BME280;58632;51.718;19.446;2022-07-29T07:08:29;100018.78;;;28.58;29.24
70971;BME280;58632;51.718;19.446;2022-07-29T07:10:57;100012.36;;;28.58;29.57
70971;BME280;58632;51.718;19.446;2022-07-29T07:13:24;100012.52;;;28.42;29.70
70971;BME280;58632;51.718;19.446;2022-07-29T07:15:51;100009.98;;;28.03;30.08
70971;BME280;58632;51.718;19.446;2022-07-29T07:18:18;100004.65;;;28.17;30.08
70971;BME280;58632;51.718;19.446;2022-07-29T07:20:46;100007.30;;;28.16;29.68
70971;BME280;58632;51.718;19.446;2022-07-29T07:23:14;100008.41;;;28.02;30.01
70971;BME280;58632;51.718;19.446;2022-07-29T07:25:41;100007.47;;;28.09;30.61
70971;BME280;58632;51.718;19.446;2022-07-29T07:28:08;100014.86;;;28.19;30.18
70971;BME280;58632;51.718;19.446;2022-07-29T07:30:36;100010.56;;;28.31;28.74
70971;BME280;58632;51.718;19.446;2022-07-29T07:33:03;100010.66;;;28.36;29.49
70971;BME280;58632;51.718;19.446;2022-07-29T07:35:31;100013.55;;;28.32;28.43
70971;BME280;58632;51.718;19.446;2022-07-29T07:37:59;100011.85;;;28.10;30.14
70971;BME280;58632;51.718;19.446;2022-07-29T07:40:26;100003.34;;;28.22;31.06
70971;BME280;58632;51.718;19.446;2022-07-29T07:42:53;99994.48;;;28.40;29.41
70971;BME280;58632;51.718;19.446;2022-07-29T07:45:21;99992.47;;;28.65;29.10
70971;BME280;58632;51.718;19.446;2022-07-29T07:47:48;99998.02;;;28.68;28.77
70971;BME280;58632;51.718;19.446;2022-07-29T07:50:16;99987.20;;;28.59;29.97
70971;BME280;58632;51.718;19.446;2022-07-29T07:52:52;99991.16;;;28.61;29.54
70971;BME280;58632;51.718;19.446;2022-07-29T07:55:23;100005.41;;;28.87;29.77
70971;BME280;58632;51.718;19.446;2022-07-29T07:57:51;100009.63;;;28.62;28.21
70971;BME280;58632;51.718;19.446;2022-07-29T08:00:19;99994.14;;;28.46;28.69
70971;BME280;58632;51.718;19.446;2022-07-29T08:02:46;100000.99;;;28.45;27.93
70971;BME280;58632;51.718;19.446;2022-07-29T08:05:14;100006.12;;;28.50;28.89
70971;BME280;58632;51.718;19.446;2022-07-29T08:07:44;100002.59;;;28.62;28.40
70971;BME280;58632;51.718;19.446;2022-07-29T08:10:14;99994.66;;;28.33;28.83
70971;BME280;58632;51.718;19.446;2022-07-29T08:12:45;99986.45;;;28.22;29.73
70971;BME280;58632;51.718;19.446;2022-07-29T08:15:12;99992.36;;;28.36;28.56
70971;BME280;58632;51.718;19.446;2022-07-29T08:17:39;99997.02;;;28.34;28.44
70971;BME280;58632;51.718;19.446;2022-07-29T08:20:08;99996.56;;;28.27;28.47
70971;BME280;58632;51.718;19.446;2022-07-29T08:22:36;99997.42;;;28.08;27.76
70971;BME280;58632;51.718;19.446;2022-07-29T08:25:04;99988.71;;;28.02;27.36
70971;BME280;58632;51.718;19.446;2022-07-29T08:27:32;99991.95;;;27.93;28.79
70971;BME280;58632;51.718;19.446;2022-07-29T08:29:59;99998.39;;;27.81;28.66
70971;BME280;58632;51.718;19.446;2022-07-29T08:32:26;99995.52;;;27.65;29.31
70971;BME280;58632;51.718;19.446;2022-07-29T08:34:54;100006.19;;;27.54;30.55
70971;BME280;58632;51.718;19.446;2022-07-29T08:37:22;99999.36;;;27.55;29.79
70971;BME280;58632;51.718;19.446;2022-07-29T08:39:49;99997.17;;;27.42;29.55
70971;BME280;58632;51.718;19.446;2022-07-29T08:42:16;100002.65;;;27.50;29.36
70971;BME280;58632;51.718;19.446;2022-07-29T08:44:44;99993.80;;;27.71;28.87
70971;BME280;58632;51.718;19.446;2022-07-29T08:47:13;99997.58;;;27.93;28.20
70971;BME280;58632;51.718;19.446;2022-07-29T08:49:41;99991.91;;;28.21;28.78
70971;BME280;58632;51.718;19.446;2022-07-29T08:52:12;99994.50;;;28.48;28.55
70971;BME280;58632;51.718;19.446;2022-07-29T08:54:43;100000.74;;;28.56;28.06
70971;BME280;58632;51.718;19.446;2022-07-29T08:57:13;99998.54;;;28.71;28.31
70971;BME280;58632;51.718;19.446;2022-07-29T08:59:42;100002.02;;;29.00;27.11
70971;BME280;58632;51.718;19.446;2022-07-29T09:02:22;100012.23;;;29.19;27.11
70971;BME280;58632;51.718;19.446;2022-07-29T09:04:52;100002.64;;;29.16;27.71
70971;BME280;58632;51.718;19.446;2022-07-29T09:07:19;99999.42;;;29.30;27.03
70971;BME280;58632;51.718;19.446;2022-07-29T09:09:47;99998.61;;;29.59;27.27
70971;BME280;58632;51.718;19.446;2022-07-29T09:12:14;100004.85;;;29.67;26.97
70971;BME280;58632;51.718;19.446;2022-07-29T09:14:43;99999.55;;;29.69;26.65
70971;BME280;58632;51.718;19.446;2022-07-29T09:17:10;99999.95;;;29.54;27.21
70971;BME280;58632;51.718;19.446;2022-07-29T09:19:37;100001.20;;;29.53;26.37
70971;BME280;58632;51.718;19.446;2022-07-29T09:22:06;100001.05;;;29.44;26.12
70971;BME280;58632;51.718;19.446;2022-07-29T09:24:44;99990.88;;;29.34;26.26
70971;BME280;58632;51.718;19.446;2022-07-29T09:27:21;99989.55;;;29.30;27.46
70971;BME280;58632;51.718;19.446;2022-07-29T09:32:58;99991.45;;;29.12;26.76
70971;BME280;58632;51.718;19.446;2022-07-29T09:35:31;99988.62;;;29.21;26.55
70971;BME280;58632;51.718;19.446;2022-07-29T09:38:13;99988.11;;;29.09;27.79
70971;BME280;58632;51.718;19.446;2022-07-29T09:40:40;99981.93;;;29.15;27.43
70971;BME280;58632;51.718;19.446;2022-07-29T09:43:12;99978.77;;;29.12;28.48
70971;BME280;58632;51.718;19.446;2022-07-29T09:45:40;99980.80;;;29.12;26.60
70971;BME280;58632;51.718;19.446;2022-07-29T09:48:18;99968.31;;;28.97;25.68
70971;BME280;58632;51.718;19.446;2022-07-29T09:50:48;99977.42;;;28.80;26.03
70971;BME280;58632;51.718;19.446;2022-07-29T09:53:36;99969.31;;;28.74;25.86
70971;BME280;58632;51.718;19.446;2022-07-29T09:56:06;99960.83;;;28.82;25.87
70971;BME280;58632;51.718;19.446;2022-07-29T09:58:33;99964.63;;;28.91;27.46
70971;BME280;58632;51.718;19.446;2022-07-29T10:01:01;99964.16;;;29.01;26.54
70971;BME280;58632;51.718;19.446;2022-07-29T10:03:28;99964.16;;;29.09;26.09
70971;BME280;58632;51.718;19.446;2022-07-29T10:06:11;99966.89;;;29.13;24.70
70971;BME280;58632;51.718;19.446;2022-07-29T10:08:41;99966.97;;;29.18;25.16
70971;BME280;58632;51.718;19.446;2022-07-29T10:11:14;99953.80;;;29.27;25.24
70971;BME280;58632;51.718;19.446;2022-07-29T10:13:46;99955.72;;;29.51;26.61
70971;BME280;58632;51.718;19.446;2022-07-29T10:16:16;99952.28;;;29.86;25.41
70971;BME280;58632;51.718;19.446;2022-07-29T10:18:44;99949.36;;;30.15;26.10
70971;BME280;58632;51.718;19.446;2022-07-29T10:21:13;99942.98;;;30.19;26.20
70971;BME280;58632;51.718;19.446;2022-07-29T10:23:40;99937.39;;;30.11;25.22
70971;BME280;58632;51.718;19.446;2022-07-29T10:26:10;99941.86;;;29.91;25.81
70971;BME280;58632;51.718;19.446;2022-07-29T10:28:37;99946.38;;;29.88;27.15
70971;BME280;58632;51.718;19.446;2022-07-29T10:31:06;99952.47;;;29.87;26.07
70971;BME280;58632;51.718;19.446;2022-07-29T10:34:16;99944.83;;;30.05;26.67
70971;BME280;58632;51.718;19.446;2022-07-29T10:36:59;99938.08;;;30.28;26.06
70971;BME280;58632;51.718;19.446;2022-07-29T10:40:06;99942.07;;;30.35;25.42
70971;BME280;58632;51.718;19.446;2022-07-29T10:43:00;99938.13;;;30.32;25.07
70971;BME280;58632;51.718;19.446;2022-07-29T10:45:30;99941.13;;;30.08;25.37
70971;BME280;58632;51.718;19.446;2022-07-29T10:48:04;99936.86;;;29.69;25.33
70971;BME280;58632;51.718;19.446;2022-07-29T10:56:28;99929.88;;;29.03;27.27
70971;BME280;58632;51.718;19.446;2022-07-29T10:59:22;99928.62;;;29.20;26.85
70971;BME280;58632;51.718;19.446;2022-07-29T11:01:51;99932.66;;;29.27;27.59
70971;BME280;58632;51.718;19.446;2022-07-29T11:07:19;99916.35;;;29.61;27.56
70971;BME280;58632;51.718;19.446;2022-07-29T11:12:46;99919.92;;;29.69;26.16
70971;BME280;58632;51.718;19.446;2022-07-29T11:15:16;99927.30;;;29.59;24.17
70971;BME280;58632;51.718;19.446;2022-07-29T11:20:42;99920.41;;;29.93;23.72
70971;BME280;58632;51.718;19.446;2022-07-29T11:23:30;99913.23;;;30.10;24.29
70971;BME280;58632;51.718;19.446;2022-07-29T11:26:18;99913.55;;;30.12;24.18
70971;BME280;58632;51.718;19.446;2022-07-29T11:31:43;99907.98;;;30.04;23.90
70971;BME280;58632;51.718;19.446;2022-07-29T11:45:07;99911.63;;;30.34;23.52
70971;BME280;58632;51.718;19.446;2022-07-29T11:47:39;99916.64;;;30.48;22.40
70971;BME280;58632;51.718;19.446;2022-07-29T11:50:10;99916.31;;;30.20;22.71
70971;BME280;58632;51.718;19.446;2022-07-29T11:52:42;99928.53;;;30.30;23.53
70971;BME280;58632;51.718;19.446;2022-07-29T11:55:19;99920.59;;;30.37;23.25
70971;BME280;58632;51.718;19.446;2022-07-29T11:58:01;99919.47;;;30.48;25.20
70971;BME280;58632;51.718;19.446;2022-07-29T12:00:40;99918.80;;;30.18;25.55
70971;BME280;58632;51.718;19.446;2022-07-29T12:03:10;99919.28;;;29.91;24.78
70971;BME280;58632;51.718;19.446;2022-07-29T12:05:43;99904.64;;;29.88;25.71
70971;BME280;58632;51.718;19.446;2022-07-29T12:08:20;99910.06;;;29.95;25.56
70971;BME280;58632;51.718;19.446;2022-07-29T12:10:50;99907.08;;;29.94;26.23
70971;BME280;58632;51.718;19.446;2022-07-29T12:13:20;99903.48;;;29.93;26.13
70971;BME280;58632;51.718;19.446;2022-07-29T12:15:55;99911.52;;;29.74;25.78
70971;BME280;58632;51.718;19.446;2022-07-29T12:18:24;99898.39;;;29.54;26.05
70971;BME280;58632;51.718;19.446;2022-07-29T12:20:59;99901.71;;;29.45;25.83
70971;BME280;58632;51.718;19.446;2022-07-29T12:23:30;99898.23;;;29.66;25.41
70971;BME280;58632;51.718;19.446;2022-07-29T12:25:59;99887.66;;;29.96;26.04
70971;BME280;58632;51.718;19.446;2022-07-29T12:28:26;99894.36;;;30.07;25.64
70971;BME280;58632;51.718;19.446;2022-07-29T12:30:53;99896.84;;;30.05;25.85
70971;BME280;58632;51.718;19.446;2022-07-29T12:33:25;99890.30;;;30.08;25.74
70971;BME280;58632;51.718;19.446;2022-07-29T12:35:59;99888.89;;;30.08;25.41
70971;BME280;58632;51.718;19.446;2022-07-29T12:38:28;99889.78;;;30.05;25.89
70971;BME280;58632;51.718;19.446;2022-07-29T12:40:57;99881.39;;;29.96;25.62
70971;BME280;58632;51.718;19.446;2022-07-29T12:43:24;99881.83;;;29.95;25.73
70971;BME280;58632;51.718;19.446;2022-07-29T12:45:56;99882.75;;;29.92;25.79
70971;BME280;58632;51.718;19.446;2022-07-29T12:48:38;99875.77;;;29.84;25.69
70971;BME280;58632;51.718;19.446;2022-07-29T12:51:08;99876.31;;;29.79;25.33
70971;BME280;58632;51.718;19.446;2022-07-29T12:53:37;99869.77;;;29.69;25.30
70971;BME280;58632;51.718;19.446;2022-07-29T12:56:06;99867.83;;;29.66;26.04
70971;BME280;58632;51.718;19.446;2022-07-29T12:58:39;99863.17;;;29.80;26.02
70971;BME280;58632;51.718;19.446;2022-07-29T13:01:13;99872.48;;;29.98;26.32
70971;BME280;58632;51.718;19.446;2022-07-29T13:03:49;99862.17;;;30.17;26.03
70971;BME280;58632;51.718;19.446;2022-07-29T13:09:18;99857.16;;;30.04;28.10
70971;BME280;58632;51.718;19.446;2022-07-29T13:11:52;99855.41;;;30.02;26.81
70971;BME280;58632;51.718;19.446;2022-07-29T13:14:39;99858.23;;;29.63;27.22
70971;BME280;58632;51.718;19.446;2022-07-29T13:17:16;99862.19;;;29.53;26.87
70971;BME280;58632;51.718;19.446;2022-07-29T13:19:51;99858.38;;;29.39;27.73
70971;BME280;58632;51.718;19.446;2022-07-29T13:22:22;99862.56;;;29.34;27.80
70971;BME280;58632;51.718;19.446;2022-07-29T13:24:55;99853.89;;;29.41;27.49
70971;BME280;58632;51.718;19.446;2022-07-29T13:27:26;99848.41;;;29.42;27.75
70971;BME280;58632;51.718;19.446;2022-07-29T13:29:55;99846.62;;;29.48;28.07
70971;BME280;58632;51.718;19.446;2022-07-29T13:32:25;99840.45;;;29.32;28.94
70971;BME280;58632;51.718;19.446;2022-07-29T13:34:54;99843.36;;;29.29;27.46
70971;BME280;58632;51.718;19.446;2022-07-29T13:37:22;99831.58;;;29.26;27.57
70971;BME280;58632;51.718;19.446;2022-07-29T13:39:50;99829.27;;;29.29;28.49
70971;BME280;58632;51.718;19.446;2022-07-29T13:42:17;99834.05;;;29.24;28.35
70971;BME280;58632;51.718;19.446;2022-07-29T13:44:45;99842.64;;;29.20;27.85
70971;BME280;58632;51.718;19.446;2022-07-29T13:47:12;99831.80;;;29.19;27.96
70971;BME280;58632;51.718;19.446;2022-07-29T13:49:39;99827.70;;;29.28;27.95
70971;BME280;58632;51.718;19.446;2022-07-29T13:52:07;99835.88;;;29.30;28.38
70971;BME280;58632;51.718;19.446;2022-07-29T13:54:35;99836.66;;;29.31;27.82
70971;BME280;58632;51.718;19.446;2022-07-29T13:57:05;99829.33;;;29.21;28.76